Sausalito, CA (94966)

2:03 AM PDT on August 29, 2016 (GMT -0700)
Waldo Point Harbor | | Change Station

Elev 171 ft 37.87 °N, 122.50 °W | Updated 15 minutes ago

Scattered Clouds
Scattered Clouds
55.9 °F
Feels Like 55.9 °F
N
2.2
Wind Variable Wind from SSE

Today
High -- | Low -- °F
--% Chance of Precip.
Yesterday
High -- | Low -- °F
Precip. -- in
Pressure 30.08 in
Visibility 10.0 miles
Clouds Few 1400 ft
Scattered Clouds 2000 ft
Dew Point 53 °F
Humidity 90%
Rainfall 0.00 in
Snow Depth Not available.
6:37 AM 7:42 PM
Waning Crescent, 10% visible
METAR KOAK 290853Z 28010KT 10SM FEW014 SCT020 16/12 A3008 RMK AO2 SLP186 T01560117 58000
Pressure 30.08 in
Visibility 10.0 miles
Clouds Few 1400 ft
Scattered Clouds 2000 ft
Dew Point 53 °F
Humidity 90%
Rainfall 0.00 in
Snow Depth Not available.
6:37 AM 7:42 PM
Waning Crescent, 10% visible
METAR KOAK 290853Z 28010KT 10SM FEW014 SCT020 16/12 A3008 RMK AO2 SLP186 T01560117 58000

10-Day Weather Forecast

Almanac

Astronomy

Aug. 29, 2016 Rise Set
Actual Time
Civil Twilight
Nautical Twilight
Astronomical Twilight
Moon
Length of Visible Light
Length of Day
Tomorrow will be .
, % of the Moon is Illuminated

Today's Extremes

State Highs State Lows

Community

WunderPhotos

Upload Photos

1,935,798 photos uploaded!

WunderBlog® & News

Nearby

Air Quality

  Air Quality AQ Index Pollutant
Not available.

Snow Depth

Station Depth Elevation

Earthquake Activity

City Distance Mag. Time & Date
Minimum magnitude displayed is 2.5.

Coastal Water Temperatures

Place Temperature

Stations

Nearby Weather Stations

Station Location Temp. Windchill Dew Point Humidity Wind Precip. Elev Updated Type
                   

Watches & Warnings

There are currently no watches in effect.